Time;durP1;ratioP1;P1;durP2;ratioP2;P2;SDS_P1;SDS_P2;PMS_P1;PMS_P2;Temp;Humidity;BMP_temperature;BMP_pressure;BME280_temperature;BME280_humidity;BME280_pressure;Samples;Min_cycle;Max_cycle;Signal;HPM_P1;HPM_P2
2022/06/05 00:02:16;;;;;;;;;11.25;10.25;;;;;;;;5144095;27;8756;-77
2022/06/05 00:04:48;;;;;;;;;16.25;12.00;;;;;;;;5144203;27;8863;-77
2022/06/05 00:07:32;;;;;;;;;11.75;11.75;;;;;;;;5143569;27;8871;-77
2022/06/05 00:10:13;;;;;;;;;15.25;11.00;;;;;;;;5143842;27;9992;-77
2022/06/05 00:12:58;;;;;;;;;15.00;9.25;;;;;;;;5125307;27;10311;-77
2022/06/05 00:15:24;;;;;;;;;12.75;10.25;;;;;;;;5124486;27;11171;-77
2022/06/05 00:17:49;;;;;;;;;14.50;14.50;;;;;;;;5125168;27;10147;-77
2022/06/05 00:20:15;;;;;;;;;8.50;6.50;;;;;;;;5143795;27;9062;-77
2022/06/05 00:22:40;;;;;;;;;14.25;11.25;;;;;;;;5125168;27;10054;-77
2022/06/05 00:25:06;;;;;;;;;19.00;10.25;;;;;;;;5143932;27;8791;-77
2022/06/05 00:27:38;;;;;;;;;10.50;10.00;;;;;;;;5125177;27;8778;-77
2022/06/05 00:30:07;;;;;;;;;9.50;9.50;;;;;;;;5143866;27;10076;-77
2022/06/05 00:32:47;;;;;;;;;10.50;9.00;;;;;;;;5143861;27;10309;-77
2022/06/05 00:35:15;;;;;;;;;11.75;11.75;;;;;;;;5143255;27;10242;-77
2022/06/05 00:37:52;;;;;;;;;12.50;10.25;;;;;;;;5145102;27;10142;-77
2022/06/05 00:40:36;;;;;;;;;11.50;8.25;;;;;;;;5147102;27;10102;-77
2022/06/05 00:43:03;;;;;;;;;13.00;12.25;;;;;;;;5147286;27;10354;-77
2022/06/05 00:45:29;;;;;;;;;13.25;11.50;;;;;;;;5147112;27;10175;-77
2022/06/05 00:47:55;;;;;;;;;12.00;12.00;;;;;;;;5147210;27;10169;-77
2022/06/05 00:50:22;;;;;;;;;9.25;6.25;;;;;;;;5146865;27;8763;-77
2022/06/05 00:52:49;;;;;;;;;10.00;7.25;;;;;;;;5147275;27;8743;-77
2022/06/05 00:55:15;;;;;;;;;13.50;11.00;;;;;;;;5146451;27;10046;-77
2022/06/05 00:57:40;;;;;;;;;11.25;8.00;;;;;;;;5147035;27;10183;-77
2022/06/05 01:00:10;;;;;;;;;4.75;4.50;;;;;;;;5147155;27;8807;-77
2022/06/05 01:02:36;;;;;;;;;10.25;9.00;;;;;;;;5128247;27;10253;-77
2022/06/05 01:05:01;;;;;;;;;10.00;9.75;;;;;;;;5146809;27;9961;-77
2022/06/05 01:07:27;;;;;;;;;11.25;9.25;;;;;;;;5146635;27;8786;-77
2022/06/05 01:09:52;;;;;;;;;7.25;6.25;;;;;;;;5128387;27;8809;-77
2022/06/05 01:12:17;;;;;;;;;6.50;6.50;;;;;;;;5127925;27;10379;-77
2022/06/05 01:14:43;;;;;;;;;10.50;8.50;;;;;;;;5128413;27;8844;-77
2022/06/05 01:17:11;;;;;;;;;7.25;6.25;;;;;;;;5146876;27;8821;-78
2022/06/05 01:19:36;;;;;;;;;6.50;6.50;;;;;;;;5146121;27;8811;-77
2022/06/05 01:22:10;;;;;;;;;7.25;6.00;;;;;;;;5128033;27;10367;-77
2022/06/05 01:25:11;;;;;;;;;9.75;8.75;;;;;;;;5127954;27;8802;-78
2022/06/05 01:27:39;;;;;;;;;7.50;6.75;;;;;;;;5042222;28;10020;-77
2022/06/05 01:30:16;;;;;;;;;6.50;5.75;;;;;;;;5042771;28;10155;-77
2022/06/05 01:32:57;;;;;;;;;11.25;7.75;;;;;;;;5042322;28;10178;-77
2022/06/05 01:35:28;;;;;;;;;9.00;6.25;;;;;;;;5025536;28;10133;-77
2022/06/05 01:38:00;;;;;;;;;10.75;9.00;;;;;;;;5025357;28;11190;-77
2022/06/05 01:40:31;;;;;;;;;10.25;7.00;;;;;;;;5042160;28;10264;-77
2022/06/05 01:43:01;;;;;;;;;11.25;7.75;;;;;;;;5042214;28;10280;-78
2022/06/05 01:45:33;;;;;;;;;10.50;7.75;;;;;;;;5042329;28;10167;-78
2022/06/05 01:48:00;;;;;;;;;11.50;7.00;;;;;;;;5042001;28;10094;-78
2022/06/05 01:50:28;;;;;;;;;10.00;7.50;;;;;;;;5024673;28;10108;-78
2022/06/05 01:52:59;;;;;;;;;10.25;8.50;;;;;;;;5042282;28;10452;-77
2022/06/05 01:55:32;;;;;;;;;9.00;6.00;;;;;;;;5042176;28;10247;-77
2022/06/05 01:57:59;;;;;;;;;17.50;10.00;;;;;;;;5041969;28;10040;-77
2022/06/05 02:00:25;;;;;;;;;8.00;8.00;;;;;;;;5043238;27;10139;-77
2022/06/05 02:02:57;;;;;;;;;8.00;8.00;;;;;;;;5146027;27;10544;-77
2022/06/05 02:05:28;;;;;;;;;9.25;7.25;;;;;;;;5146201;27;8712;-77
2022/06/05 02:07:59;;;;;;;;;7.50;5.00;;;;;;;;5127067;27;10242;-77
2022/06/05 02:10:31;;;;;;;;;7.75;7.75;;;;;;;;5145762;27;10061;-77
2022/06/05 02:12:58;;;;;;;;;8.75;7.75;;;;;;;;5145784;27;10358;-77
2022/06/05 02:15:23;;;;;;;;;7.25;4.00;;;;;;;;5145996;27;10227;-77
2022/06/05 02:17:50;;;;;;;;;5.25;4.50;;;;;;;;5145211;27;10093;-77
2022/06/05 02:20:16;;;;;;;;;6.75;6.25;;;;;;;;5145773;27;8937;-77
2022/06/05 02:22:43;;;;;;;;;8.25;5.00;;;;;;;;5145636;27;10246;-77
2022/06/05 02:25:09;;;;;;;;;20.00;19.25;;;;;;;;5145597;27;10014;-77
2022/06/05 02:27:35;;;;;;;;;51.00;39.00;;;;;;;;5145369;27;10152;-77
2022/06/05 02:30:00;;;;;;;;;55.50;44.25;;;;;;;;5145589;27;11449;-77
2022/06/05 02:32:32;;;;;;;;;53.75;40.50;;;;;;;;5126810;27;9975;-78
2022/06/05 02:35:13;;;;;;;;;44.50;36.75;;;;;;;;5127051;27;8783;-78
2022/06/05 02:37:39;;;;;;;;;34.50;29.75;;;;;;;;5126588;27;11440;-78
2022/06/05 02:40:21;;;;;;;;;18.00;16.25;;;;;;;;5145277;27;11258;-77
2022/06/05 02:42:56;;;;;;;;;18.50;15.25;;;;;;;;5145177;27;8758;-77
2022/06/05 02:45:32;;;;;;;;;10.25;9.25;;;;;;;;5145430;27;10472;-77
2022/06/05 02:48:03;;;;;;;;;12.75;10.50;;;;;;;;5144999;27;10171;-77
2022/06/05 02:50:34;;;;;;;;;10.00;6.00;;;;;;;;5126730;27;11351;-77
2022/06/05 02:53:01;;;;;;;;;12.50;7.25;;;;;;;;5126604;27;10465;-77
2022/06/05 02:55:26;;;;;;;;;10.00;8.00;;;;;;;;5126678;27;10216;-77
2022/06/05 02:57:52;;;;;;;;;6.00;6.00;;;;;;;;5144857;27;10304;-77
2022/06/05 03:00:18;;;;;;;;;8.75;7.50;;;;;;;;5125700;27;8837;-77
2022/06/05 03:05:28;;;;;;;;;7.00;7.00;;;;;;;;5145078;27;10278;-77
2022/06/05 03:07:53;;;;;;;;;10.00;10.00;;;;;;;;5125746;27;10194;-77
2022/06/05 03:10:19;;;;;;;;;9.50;9.50;;;;;;;;5125925;27;8838;-77
2022/06/05 03:12:45;;;;;;;;;6.75;6.25;;;;;;;;5144518;27;8810;-77
2022/06/05 03:15:10;;;;;;;;;14.25;5.50;;;;;;;;5125818;27;8771;-77
2022/06/05 03:17:36;;;;;;;;;6.75;6.50;;;;;;;;5144468;27;10156;-77
2022/06/05 03:20:01;;;;;;;;;9.25;6.00;;;;;;;;5125641;27;8820;-77
2022/06/05 03:22:27;;;;;;;;;9.50;7.00;;;;;;;;5144592;27;8834;-78
2022/06/05 03:24:52;;;;;;;;;9.75;7.00;;;;;;;;5144431;27;8808;-77
2022/06/05 03:27:18;;;;;;;;;11.00;5.50;;;;;;;;5144409;27;8781;-77
2022/06/05 03:29:44;;;;;;;;;9.25;9.00;;;;;;;;5144218;27;8770;-77
2022/06/05 03:32:09;;;;;;;;;7.25;6.00;;;;;;;;5125883;27;10501;-77
2022/06/05 03:34:34;;;;;;;;;7.25;5.25;;;;;;;;5125934;27;8819;-77
2022/06/05 03:37:00;;;;;;;;;8.50;8.25;;;;;;;;5144325;27;8788;-78
2022/06/05 03:39:25;;;;;;;;;11.25;11.00;;;;;;;;5144163;27;8896;-77
2022/06/05 03:41:50;;;;;;;;;9.50;6.00;;;;;;;;5143881;27;8848;-77
2022/06/05 03:44:16;;;;;;;;;6.75;6.00;;;;;;;;5144006;27;8801;-77
2022/06/05 03:46:41;;;;;;;;;8.75;8.50;;;;;;;;5144401;27;8780;-77
2022/06/05 03:49:07;;;;;;;;;8.50;8.00;;;;;;;;5125500;27;8788;-78
2022/06/05 03:51:32;;;;;;;;;10.50;9.75;;;;;;;;5144198;27;8833;-77
2022/06/05 03:53:57;;;;;;;;;11.00;8.00;;;;;;;;5125376;27;9612;-78
2022/06/05 03:56:24;;;;;;;;;7.75;7.25;;;;;;;;5144236;27;8865;-78
2022/06/05 03:58:50;;;;;;;;;11.25;8.00;;;;;;;;5143928;27;9033;-78
2022/06/05 04:01:17;;;;;;;;;12.00;7.25;;;;;;;;5125693;27;10781;-78
2022/06/05 04:03:42;;;;;;;;;9.50;6.00;;;;;;;;5144307;27;11235;-78
2022/06/05 04:06:09;;;;;;;;;9.00;9.00;;;;;;;;5144017;27;10234;-78
2022/06/05 04:08:34;;;;;;;;;6.00;6.00;;;;;;;;5144095;27;8871;-78
2022/06/05 04:11:04;;;;;;;;;8.50;8.50;;;;;;;;5125284;27;10629;-78
2022/06/05 04:13:29;;;;;;;;;14.00;10.00;;;;;;;;5143423;27;8788;-78
2022/06/05 04:15:55;;;;;;;;;9.75;9.50;;;;;;;;5143789;27;10381;-78
2022/06/05 04:18:20;;;;;;;;;8.50;5.50;;;;;;;;5143681;27;8960;-78
2022/06/05 04:20:45;;;;;;;;;10.00;7.75;;;;;;;;5144134;27;8887;-78
2022/06/05 04:23:10;;;;;;;;;6.75;5.00;;;;;;;;5143684;27;8785;-77
2022/06/05 04:25:36;;;;;;;;;11.00;6.25;;;;;;;;5125280;27;8922;-78
2022/06/05 04:28:01;;;;;;;;;8.50;7.50;;;;;;;;5143157;27;8803;-78
2022/06/05 04:30:26;;;;;;;;;8.50;8.50;;;;;;;;5125277;27;9992;-78
2022/06/05 04:32:52;;;;;;;;;9.50;6.00;;;;;;;;5143976;27;8787;-78
2022/06/05 04:35:17;;;;;;;;;9.00;7.50;;;;;;;;5143431;27;8771;-78
2022/06/05 04:37:42;;;;;;;;;9.25;6.25;;;;;;;;5143535;27;8944;-78
2022/06/05 04:40:08;;;;;;;;;8.00;7.75;;;;;;;;5124964;27;10308;-78
2022/06/05 04:42:34;;;;;;;;;9.25;6.75;;;;;;;;5143433;27;8817;-78
2022/06/05 04:45:00;;;;;;;;;11.50;8.25;;;;;;;;5143420;27;8787;-78
2022/06/05 04:47:25;;;;;;;;;9.75;8.00;;;;;;;;5143611;27;9807;-78
2022/06/05 04:49:50;;;;;;;;;9.00;9.00;;;;;;;;5143672;27;10338;-78
2022/06/05 04:52:16;;;;;;;;;11.00;9.25;;;;;;;;5143428;27;8939;-78
2022/06/05 04:54:41;;;;;;;;;8.25;6.00;;;;;;;;5142469;27;8796;-78
2022/06/05 04:57:06;;;;;;;;;11.00;8.75;;;;;;;;5142601;27;8817;-77
2022/06/05 04:59:31;;;;;;;;;10.25;7.75;;;;;;;;5143583;27;8909;-77
2022/06/05 05:01:57;;;;;;;;;10.50;9.75;;;;;;;;5143605;27;8783;-77
2022/06/05 05:04:22;;;;;;;;;7.50;7.00;;;;;;;;5124787;27;9570;-78
2022/06/05 05:06:47;;;;;;;;;10.00;9.00;;;;;;;;5142972;27;8806;-78
2022/06/05 05:09:13;;;;;;;;;7.50;7.00;;;;;;;;5142744;27;8885;-78
2022/06/05 05:11:39;;;;;;;;;13.50;8.25;;;;;;;;5142822;27;8819;-78
2022/06/05 05:14:04;;;;;;;;;9.00;7.50;;;;;;;;5124752;27;8858;-78
2022/06/05 05:16:30;;;;;;;;;9.00;6.00;;;;;;;;5143416;27;8782;-78
2022/06/05 05:18:55;;;;;;;;;7.50;7.50;;;;;;;;5133575;27;8827;-78
2022/06/05 05:21:21;;;;;;;;;8.25;8.25;;;;;;;;5143069;27;8818;-78
2022/06/05 05:23:47;;;;;;;;;12.75;7.50;;;;;;;;5143631;27;8767;-78
2022/06/05 05:26:18;;;;;;;;;7.25;6.00;;;;;;;;5146514;27;10560;-78
2022/06/05 05:28:45;;;;;;;;;8.50;7.25;;;;;;;;5146364;27;8796;-77
2022/06/05 05:31:17;;;;;;;;;9.00;7.50;;;;;;;;5146617;27;9757;-77
2022/06/05 05:33:43;;;;;;;;;10.00;8.75;;;;;;;;5146083;27;10113;-77
2022/06/05 05:36:08;;;;;;;;;8.50;8.50;;;;;;;;5146564;27;10058;-77
2022/06/05 05:38:34;;;;;;;;;9.25;5.25;;;;;;;;5127416;27;10211;-77
2022/06/05 05:43:43;;;;;;;;;10.00;10.00;;;;;;;;5146531;27;8744;-78
2022/06/05 05:46:09;;;;;;;;;10.75;9.00;;;;;;;;5146431;27;10033;-78
2022/06/05 05:48:35;;;;;;;;;8.75;7.25;;;;;;;;5145870;27;8739;-77
2022/06/05 05:51:00;;;;;;;;;7.75;7.75;;;;;;;;5146369;27;9879;-78
2022/06/05 05:53:25;;;;;;;;;5.50;5.50;;;;;;;;5145686;27;8779;-78
2022/06/05 05:55:51;;;;;;;;;9.75;7.50;;;;;;;;5127396;27;8818;-77
2022/06/05 05:58:16;;;;;;;;;7.50;6.50;;;;;;;;5127405;27;10024;-77
2022/06/05 06:00:41;;;;;;;;;9.00;6.25;;;;;;;;5145434;27;8779;-77
2022/06/05 06:03:06;;;;;;;;;13.00;9.00;;;;;;;;5145295;27;8824;-79
2022/06/05 06:05:32;;;;;;;;;8.00;8.00;;;;;;;;5144916;27;8782;-79
2022/06/05 06:07:57;;;;;;;;;9.25;6.25;;;;;;;;5144733;27;8775;-79
2022/06/05 06:10:23;;;;;;;;;11.75;9.00;;;;;;;;5144397;27;8814;-78
2022/06/05 06:12:48;;;;;;;;;11.75;11.00;;;;;;;;5144857;27;8783;-79
2022/06/05 06:15:14;;;;;;;;;14.25;8.25;;;;;;;;5126420;27;8906;-79
2022/06/05 06:17:39;;;;;;;;;8.50;7.00;;;;;;;;5137685;27;8918;-78
2022/06/05 06:20:04;;;;;;;;;8.50;6.25;;;;;;;;5142645;27;8823;-77
2022/06/05 06:22:30;;;;;;;;;7.25;6.25;;;;;;;;5125674;27;9589;-79
2022/06/05 06:24:55;;;;;;;;;7.75;6.00;;;;;;;;5144341;27;8803;-77
2022/06/05 06:27:21;;;;;;;;;9.25;7.75;;;;;;;;5125630;27;9962;-79
2022/06/05 06:29:46;;;;;;;;;6.50;6.50;;;;;;;;5144324;27;8808;-78
2022/06/05 06:32:11;;;;;;;;;13.00;11.25;;;;;;;;5144634;27;8795;-77
2022/06/05 06:34:36;;;;;;;;;10.50;10.25;;;;;;;;5144008;27;8862;-78
2022/06/05 06:37:02;;;;;;;;;10.00;10.00;;;;;;;;5144544;27;8833;-79
2022/06/05 06:39:28;;;;;;;;;8.75;7.00;;;;;;;;5143993;27;8751;-79
2022/06/05 06:41:54;;;;;;;;;11.00;8.00;;;;;;;;5144504;27;10001;-79
2022/06/05 06:44:19;;;;;;;;;8.00;7.00;;;;;;;;5144455;27;9559;-77
2022/06/05 06:46:44;;;;;;;;;9.25;8.00;;;;;;;;5125478;27;9942;-75
2022/06/05 06:49:09;;;;;;;;;9.00;8.00;;;;;;;;5144620;27;8895;-79
2022/06/05 06:51:35;;;;;;;;;13.25;8.25;;;;;;;;5143221;27;8936;-77
2022/06/05 06:54:00;;;;;;;;;12.00;7.75;;;;;;;;5134678;27;9593;-78
2022/06/05 06:56:27;;;;;;;;;7.50;7.50;;;;;;;;5124371;27;9913;-76
2022/06/05 06:58:53;;;;;;;;;7.00;5.75;;;;;;;;5125927;27;8821;-76
2022/06/05 07:01:19;;;;;;;;;6.50;6.00;;;;;;;;5143192;27;9817;-75
2022/06/05 07:03:44;;;;;;;;;7.25;6.50;;;;;;;;5143928;27;8775;-75
2022/06/05 07:06:12;;;;;;;;;6.75;6.00;;;;;;;;5143964;27;8774;-75
2022/06/05 07:08:38;;;;;;;;;8.00;8.00;;;;;;;;5123972;27;9833;-75
2022/06/05 07:11:10;;;;;;;;;9.75;9.75;;;;;;;;5143545;27;9884;-76
2022/06/05 07:13:36;;;;;;;;;8.00;8.00;;;;;;;;5125212;27;8809;-77
2022/06/05 07:16:02;;;;;;;;;10.25;8.00;;;;;;;;5144589;27;10086;-77
2022/06/05 07:18:27;;;;;;;;;10.25;8.00;;;;;;;;5125312;27;8834;-76
2022/06/05 07:20:53;;;;;;;;;10.50;7.75;;;;;;;;5126198;27;8879;-75
2022/06/05 07:23:18;;;;;;;;;13.00;7.25;;;;;;;;5143697;27;8770;-76
2022/06/05 07:25:45;;;;;;;;;13.00;11.75;;;;;;;;5143060;27;8779;-75
2022/06/05 07:28:10;;;;;;;;;8.25;6.25;;;;;;;;5143309;27;8788;-76
2022/06/05 07:30:35;;;;;;;;;10.00;9.75;;;;;;;;5124531;27;9897;-78
2022/06/05 07:33:00;;;;;;;;;7.75;6.50;;;;;;;;5143550;27;8859;-77
2022/06/05 07:35:26;;;;;;;;;7.50;7.50;;;;;;;;5143600;27;8920;-77
2022/06/05 07:37:51;;;;;;;;;4.25;4.25;;;;;;;;5142710;27;8896;-77
2022/06/05 07:40:16;;;;;;;;;6.50;5.50;;;;;;;;5143229;27;8812;-77
2022/06/05 07:42:42;;;;;;;;;5.00;5.00;;;;;;;;5142367;27;8819;-79
2022/06/05 07:45:10;;;;;;;;;6.00;6.00;;;;;;;;5125090;27;10124;-84
2022/06/05 07:47:35;;;;;;;;;3.50;3.50;;;;;;;;5143799;27;9554;-82
2022/06/05 07:50:00;;;;;;;;;4.00;4.00;;;;;;;;5125394;27;9577;-81
2022/06/05 07:55:10;;;;;;;;;4.25;3.75;;;;;;;;5123718;28;8891;-83
2022/06/05 07:57:36;;;;;;;;;4.67;4.67;;;;;;;;5157290;27;9660;-84
2022/06/05 08:00:05;;;;;;;;;5.75;5.25;;;;;;;;5123251;28;10463;-88
2022/06/05 08:02:31;;;;;;;;;6.00;5.00;;;;;;;;5123305;28;8776;-84
2022/06/05 08:04:56;;;;;;;;;4.67;4.67;;;;;;;;5140171;27;9675;-81
2022/06/05 08:07:22;;;;;;;;;6.25;5.00;;;;;;;;5144015;27;8805;-79
2022/06/05 08:09:48;;;;;;;;;4.00;4.00;;;;;;;;5143670;27;8818;-78
2022/06/05 08:12:15;;;;;;;;;3.00;3.00;;;;;;;;5125369;27;9564;-79
2022/06/05 08:14:42;;;;;;;;;2.67;2.67;;;;;;;;5144207;27;8709;-83
2022/06/05 08:17:08;;;;;;;;;4.67;3.67;;;;;;;;5125276;27;9246;-84
2022/06/05 08:19:34;;;;;;;;;4.00;4.00;;;;;;;;5124819;27;9514;-85
2022/06/05 08:21:59;;;;;;;;;1.33;1.33;;;;;;;;5142489;27;9417;-89
2022/06/05 08:24:24;;;;;;;;;5.33;3.00;;;;;;;;5143363;27;9316;-88
2022/06/05 08:26:51;;;;;;;;;2.00;2.00;;;;;;;;5143910;27;8783;-88
2022/06/05 08:29:16;;;;;;;;;3.00;3.00;;;;;;;;5143627;27;8751;-85
2022/06/05 08:31:43;;;;;;;;;3.00;3.00;;;;;;;;5143976;27;9300;-80
2022/06/05 08:34:08;;;;;;;;;2.33;2.33;;;;;;;;5142789;27;8751;-82
2022/06/05 08:36:33;;;;;;;;;3.67;3.67;;;;;;;;5142419;27;9436;-81
2022/06/05 08:41:52;;;;;;;;;3.00;3.00;;;;;;;;5142661;27;8713;-80
2022/06/05 08:44:23;;;;;;;;;7.00;3.00;;;;;;;;5141384;27;10439;-81
2022/06/05 08:46:55;;;;;;;;;4.00;2.67;;;;;;;;5124278;27;9359;-78
2022/06/05 08:49:30;;;;;;;;;2.67;2.67;;;;;;;;5149286;27;9415;-79
2022/06/05 08:52:02;;;;;;;;;4.00;3.33;;;;;;;;5163808;27;10385;-80
2022/06/05 08:54:36;;;;;;;;;3.33;3.33;;;;;;;;5163069;27;9498;-77
2022/06/05 08:57:04;;;;;;;;;2.67;2.00;;;;;;;;5159216;27;9477;-78
2022/06/05 08:59:31;;;;;;;;;3.75;3.25;;;;;;;;5137691;27;9319;-78
2022/06/05 09:02:23;;;;;;;;;3.50;3.00;;;;;;;;5128140;27;9435;-78
2022/06/05 09:05:01;;;;;;;;;4.00;3.50;;;;;;;;5163449;27;9665;-78
2022/06/05 09:07:31;;;;;;;;;5.75;5.75;;;;;;;;5127509;27;9442;-79
2022/06/05 09:10:00;;;;;;;;;5.50;4.00;;;;;;;;5136927;27;9650;-84
2022/06/05 09:12:34;;;;;;;;;5.00;5.00;;;;;;;;5162918;27;10423;-82
2022/06/05 09:15:10;;;;;;;;;5.50;4.50;;;;;;;;5162689;27;9498;-83
2022/06/05 09:17:37;;;;;;;;;5.33;4.00;;;;;;;;5140434;27;9627;-81
2022/06/05 09:20:03;;;;;;;;;3.75;3.75;;;;;;;;5144991;27;9770;-77
2022/06/05 09:22:29;;;;;;;;;4.00;4.00;;;;;;;;5148864;27;10111;-78
2022/06/05 09:24:54;;;;;;;;;2.67;2.67;;;;;;;;5167628;27;9526;-77
2022/06/05 09:27:19;;;;;;;;;4.67;3.33;;;;;;;;5163423;27;9559;-77
2022/06/05 09:30:00;;;;;;;;;3.67;3.67;;;;;;;;5167052;27;8864;-79
2022/06/05 09:32:44;;;;;;;;;5.33;5.00;;;;;;;;5163801;27;8807;-78
2022/06/05 09:35:18;;;;;;;;;7.00;6.00;;;;;;;;5125520;28;9681;-79
2022/06/05 09:38:00;;;;;;;;;5.33;2.33;;;;;;;;5106928;28;9551;-80
2022/06/05 09:40:37;;;;;;;;;5.67;4.00;;;;;;;;5125261;28;9502;-83
2022/06/05 09:43:21;;;;;;;;;4.33;4.33;;;;;;;;5107039;28;9423;-77
2022/06/05 09:45:49;;;;;;;;;6.00;3.75;;;;;;;;5125533;27;9547;-84
2022/06/05 09:48:20;;;;;;;;;6.50;5.75;;;;;;;;5125225;28;9601;-83
2022/06/05 09:50:45;;;;;;;;;10.00;9.00;;;;;;;;5125252;28;9685;-82
2022/06/05 09:53:15;;;;;;;;;7.00;7.00;;;;;;;;5125307;28;9694;-82
2022/06/05 09:55:49;;;;;;;;;8.00;8.00;;;;;;;;5124810;28;8765;-82
2022/06/05 09:58:31;;;;;;;;;5.75;4.75;;;;;;;;5116412;27;9676;-82
2022/06/05 10:01:14;;;;;;;;;5.00;5.00;;;;;;;;5145787;27;9630;-82
2022/06/05 10:03:42;;;;;;;;;8.25;7.00;;;;;;;;5146074;27;9723;-82
2022/06/05 10:06:26;;;;;;;;;5.00;5.00;;;;;;;;5127425;27;10227;-82
2022/06/05 10:09:02;;;;;;;;;10.75;10.00;;;;;;;;5127031;27;9904;-82
2022/06/05 10:11:36;;;;;;;;;7.00;6.00;;;;;;;;5111167;28;9812;-83
2022/06/05 10:14:17;;;;;;;;;8.50;7.50;;;;;;;;5106236;28;9771;-82
2022/06/05 10:16:50;;;;;;;;;7.75;7.75;;;;;;;;5105936;28;10104;-82
2022/06/05 10:19:34;;;;;;;;;9.00;7.25;;;;;;;;5106116;28;9740;-82
2022/06/05 10:22:24;;;;;;;;;8.00;8.00;;;;;;;;5106571;28;9882;-83
2022/06/05 10:24:49;;;;;;;;;7.50;7.25;;;;;;;;5124851;28;9729;-83
2022/06/05 10:27:15;;;;;;;;;9.50;8.50;;;;;;;;5123570;28;10099;-84
2022/06/05 10:29:46;;;;;;;;;38.75;26.25;;;;;;;;5124626;28;8789;-78
2022/06/05 10:32:17;;;;;;;;;23.75;20.50;;;;;;;;5106727;28;10634;-77
2022/06/05 10:34:54;;;;;;;;;16.25;15.00;;;;;;;;5124694;28;10398;-80
2022/06/05 10:37:38;;;;;;;;;13.00;9.75;;;;;;;;5124245;28;10024;-83
2022/06/05 10:40:10;;;;;;;;;10.25;8.50;;;;;;;;5124554;28;9842;-85
2022/06/05 10:42:36;;;;;;;;;8.00;7.50;;;;;;;;5123853;28;9788;-83
2022/06/05 10:45:04;;;;;;;;;13.00;9.75;;;;;;;;5121070;28;9725;-82
2022/06/05 10:47:57;;;;;;;;;8.50;8.50;;;;;;;;5104370;28;8848;-78
2022/06/05 10:50:22;;;;;;;;;10.25;8.75;;;;;;;;5122797;28;9741;-84
2022/06/05 10:52:47;;;;;;;;;12.25;7.75;;;;;;;;5124515;28;9974;-84
2022/06/05 10:55:25;;;;;;;;;9.00;8.00;;;;;;;;5123966;28;8836;-82
2022/06/05 10:58:19;;;;;;;;;8.00;7.00;;;;;;;;5104902;28;10135;-84
2022/06/05 11:00:58;;;;;;;;;8.25;7.25;;;;;;;;5106336;28;9736;-82
2022/06/05 11:03:46;;;;;;;;;8.25;8.25;;;;;;;;5112603;28;9728;-82
2022/06/05 11:06:15;;;;;;;;;13.00;9.25;;;;;;;;5045104;28;9916;-81
2022/06/05 11:08:49;;;;;;;;;11.25;10.75;;;;;;;;5038665;28;10060;-80
2022/06/05 11:14:11;;;;;;;;;6.00;6.00;;;;;;;;5058708;28;9646;-81
2022/06/05 11:17:03;;;;;;;;;13.75;10.00;;;;;;;;5057018;28;9675;-82
2022/06/05 11:19:30;;;;;;;;;5.50;4.50;;;;;;;;5037766;28;10041;-82
2022/06/05 11:21:58;;;;;;;;;13.25;9.50;;;;;;;;5041513;28;9841;-82
2022/06/05 11:24:30;;;;;;;;;9.00;8.33;;;;;;;;5057075;28;9749;-82
2022/06/05 11:27:09;;;;;;;;;15.50;11.00;;;;;;;;5058548;28;9512;-83
2022/06/05 11:29:37;;;;;;;;;11.00;10.00;;;;;;;;5059013;28;9995;-82
2022/06/05 11:32:21;;;;;;;;;11.75;10.75;;;;;;;;5060609;28;9866;-81
2022/06/05 11:34:51;;;;;;;;;10.50;9.50;;;;;;;;5058368;28;9708;-81
2022/06/05 11:37:16;;;;;;;;;11.75;10.25;;;;;;;;5058424;28;9584;-81
2022/06/05 11:39:56;;;;;;;;;13.00;10.25;;;;;;;;5058381;28;9874;-82
2022/06/05 11:42:21;;;;;;;;;12.75;11.75;;;;;;;;5046883;28;8753;-82
2022/06/05 11:44:46;;;;;;;;;11.25;8.75;;;;;;;;5121822;28;9908;-81
2022/06/05 11:47:31;;;;;;;;;14.75;11.25;;;;;;;;5121920;28;8837;-81
2022/06/05 11:49:56;;;;;;;;;11.33;10.67;;;;;;;;5103201;28;10158;-81
2022/06/05 11:52:30;;;;;;;;;11.25;11.25;;;;;;;;5121798;28;9491;-82
2022/06/05 11:55:01;;;;;;;;;8.75;8.75;;;;;;;;5121350;28;8755;-82
2022/06/05 11:57:32;;;;;;;;;14.25;11.75;;;;;;;;5121309;28;9710;-82
2022/06/05 12:00:02;;;;;;;;;14.75;10.50;;;;;;;;5121725;28;10150;-82
2022/06/05 12:02:33;;;;;;;;;9.00;8.75;;;;;;;;5100696;28;9734;-82
2022/06/05 12:05:12;;;;;;;;;8.75;8.75;;;;;;;;5121967;28;9919;-82
2022/06/05 12:07:37;;;;;;;;;6.00;6.00;;;;;;;;5121386;28;9940;-81
2022/06/05 12:10:09;;;;;;;;;9.50;9.50;;;;;;;;5106714;27;9883;-82
2022/06/05 12:12:37;;;;;;;;;14.00;9.00;;;;;;;;5142048;27;8985;-83
2022/06/05 12:15:02;;;;;;;;;15.25;13.25;;;;;;;;5139984;27;9891;-82
2022/06/05 12:17:31;;;;;;;;;6.50;6.00;;;;;;;;5123846;27;9954;-82
2022/06/05 12:20:19;;;;;;;;;7.25;7.25;;;;;;;;5123548;27;10030;-82
2022/06/05 12:23:11;;;;;;;;;11.25;9.00;;;;;;;;5117024;27;9739;-82
2022/06/05 12:25:43;;;;;;;;;10.00;10.00;;;;;;;;5086111;27;9917;-86
2022/06/05 12:28:17;;;;;;;;;8.25;7.25;;;;;;;;5125218;27;10033;-86
2022/06/05 12:30:49;;;;;;;;;10.25;10.00;;;;;;;;5124833;27;10422;-82
2022/06/05 12:33:16;;;;;;;;;8.25;7.50;;;;;;;;5143527;27;9822;-82
2022/06/05 12:35:46;;;;;;;;;8.00;8.00;;;;;;;;5146406;27;9926;-81
2022/06/05 12:38:14;;;;;;;;;7.50;6.75;;;;;;;;5146492;27;9682;-81
2022/06/05 12:40:43;;;;;;;;;6.50;6.50;;;;;;;;5146067;27;9853;-82
2022/06/05 12:43:29;;;;;;;;;7.00;6.75;;;;;;;;5147074;27;9695;-82
2022/06/05 12:45:58;;;;;;;;;5.50;5.50;;;;;;;;5146440;27;9779;-83
2022/06/05 12:48:24;;;;;;;;;8.25;6.75;;;;;;;;5127900;27;9688;-82
2022/06/05 12:50:55;;;;;;;;;8.67;6.33;;;;;;;;5145218;27;9917;-82
2022/06/05 12:53:40;;;;;;;;;7.75;7.75;;;;;;;;5143026;27;9419;-82
2022/06/05 12:56:08;;;;;;;;;8.00;7.00;;;;;;;;5143342;27;9558;-82
2022/06/05 12:58:52;;;;;;;;;8.25;7.75;;;;;;;;5144920;27;9477;-82
2022/06/05 13:01:20;;;;;;;;;7.33;4.67;;;;;;;;5126541;27;10381;-81
2022/06/05 13:04:02;;;;;;;;;7.25;6.25;;;;;;;;5126265;27;9473;-81
2022/06/05 13:06:30;;;;;;;;;6.33;5.33;;;;;;;;5143170;27;9563;-81
2022/06/05 13:08:59;;;;;;;;;6.25;6.25;;;;;;;;5126137;27;9583;-81
2022/06/05 13:11:24;;;;;;;;;8.75;7.75;;;;;;;;5126782;27;10075;-81
2022/06/05 13:14:19;;;;;;;;;7.50;6.00;;;;;;;;5146148;27;9663;-81
2022/06/05 13:16:50;;;;;;;;;6.00;6.00;;;;;;;;5042161;28;8907;-80
2022/06/05 13:19:27;;;;;;;;;7.50;6.50;;;;;;;;5042169;28;9574;-80
2022/06/05 13:22:01;;;;;;;;;13.50;6.00;;;;;;;;5041917;28;9922;-80
2022/06/05 13:24:32;;;;;;;;;6.00;6.00;;;;;;;;5042229;28;9821;-80
2022/06/05 13:27:16;;;;;;;;;7.00;7.00;;;;;;;;5040297;28;9899;-77
2022/06/05 13:29:54;;;;;;;;;12.00;9.00;;;;;;;;5040403;28;9946;-75
2022/06/05 13:32:20;;;;;;;;;8.75;6.00;;;;;;;;5040439;28;10203;-76
2022/06/05 13:34:51;;;;;;;;;7.75;7.25;;;;;;;;5025238;28;9729;-78
2022/06/05 13:37:35;;;;;;;;;11.25;5.50;;;;;;;;5041858;28;9677;-77
2022/06/05 13:40:06;;;;;;;;;6.00;6.00;;;;;;;;5041552;28;9720;-77
2022/06/05 13:42:34;;;;;;;;;7.75;6.00;;;;;;;;5041532;28;9951;-77
2022/06/05 13:45:01;;;;;;;;;7.25;5.75;;;;;;;;5024038;28;9610;-79
2022/06/05 13:47:36;;;;;;;;;4.75;3.00;;;;;;;;5041811;28;9571;-78
2022/06/05 13:50:02;;;;;;;;;7.00;6.00;;;;;;;;5024035;28;9702;-79
2022/06/05 13:52:47;;;;;;;;;5.50;5.50;;;;;;;;5063482;27;9730;-78
2022/06/05 13:55:33;;;;;;;;;9.50;8.00;;;;;;;;5145214;27;8761;-78
2022/06/05 13:58:04;;;;;;;;;6.25;5.00;;;;;;;;5124079;27;9589;-79
2022/06/05 14:00:33;;;;;;;;;5.00;4.00;;;;;;;;5126441;27;9568;-79
2022/06/05 14:02:58;;;;;;;;;8.25;6.25;;;;;;;;5144853;27;9629;-78
2022/06/05 14:05:30;;;;;;;;;10.00;7.50;;;;;;;;5151226;27;9661;-78
2022/06/05 14:08:02;;;;;;;;;9.75;7.00;;;;;;;;5142400;27;8743;-78
2022/06/05 14:10:30;;;;;;;;;7.00;7.00;;;;;;;;5145067;27;9608;-78
2022/06/05 14:12:59;;;;;;;;;10.25;9.00;;;;;;;;5145129;27;9665;-79
2022/06/05 14:15:44;;;;;;;;;7.00;7.00;;;;;;;;5127080;27;9561;-78
2022/06/05 14:18:19;;;;;;;;;8.00;6.50;;;;;;;;5144634;27;9590;-78
2022/06/05 14:20:46;;;;;;;;;7.00;7.00;;;;;;;;5126883;27;10506;-78
2022/06/05 14:23:12;;;;;;;;;9.00;6.25;;;;;;;;5125882;27;10104;-78
2022/06/05 14:25:58;;;;;;;;;8.00;7.00;;;;;;;;5119467;27;10239;-78
2022/06/05 14:28:24;;;;;;;;;4.25;4.25;;;;;;;;5124948;27;8791;-78
2022/06/05 14:30:54;;;;;;;;;6.33;6.00;;;;;;;;5144860;27;9661;-78
2022/06/05 14:33:23;;;;;;;;;6.00;5.33;;;;;;;;5119768;27;10165;-78
2022/06/05 14:35:52;;;;;;;;;6.00;6.00;;;;;;;;5140473;27;9342;-79
2022/06/05 14:38:34;;;;;;;;;4.00;4.00;;;;;;;;5121242;28;9134;-79
2022/06/05 14:41:07;;;;;;;;;5.67;4.67;;;;;;;;5140897;27;9309;-79
2022/06/05 14:43:53;;;;;;;;;7.00;5.00;;;;;;;;5145082;27;9238;-78
2022/06/05 14:46:27;;;;;;;;;5.50;5.50;;;;;;;;5120099;27;8794;-79
2022/06/05 14:48:58;;;;;;;;;4.00;4.00;;;;;;;;5144215;27;8884;-78
2022/06/05 14:51:33;;;;;;;;;3.25;3.25;;;;;;;;5131601;27;8806;-79
2022/06/05 14:54:16;;;;;;;;;3.25;2.00;;;;;;;;5144886;27;8820;-79
2022/06/05 14:59:39;;;;;;;;;4.00;4.00;;;;;;;;5137844;27;8755;-79
2022/06/05 15:02:17;;;;;;;;;3.50;3.50;;;;;;;;5125910;27;8782;-79
2022/06/05 15:05:06;;;;;;;;;3.75;2.00;;;;;;;;5144778;27;8770;-79
2022/06/05 15:07:50;;;;;;;;;3.00;2.50;;;;;;;;5108490;27;8785;-79
2022/06/05 15:10:32;;;;;;;;;3.00;3.00;;;;;;;;5140331;27;8829;-79
2022/06/05 15:13:11;;;;;;;;;3.50;3.50;;;;;;;;5125528;27;10316;-79
2022/06/05 15:15:41;;;;;;;;;3.00;2.00;;;;;;;;5114144;27;10110;-79
2022/06/05 15:18:07;;;;;;;;;0.75;0.75;;;;;;;;5140105;27;8723;-79
2022/06/05 15:20:35;;;;;;;;;2.00;2.00;;;;;;;;5139895;27;8913;-79